Swartz Creek, Michigan
Current Conditions -  °F | °C
As of 5:53 AM on Friday 31 Oct 2014 (Local Time) from KFNT Reporting Station
Light Rain Light Rain  
Wind Chill: 42°   Ceiling: 4100
Heat Index: 45°   Visibility: 9mi
Dew Point: 38°   Wind: 6mph
Humidity: 76%   Direction: 210°SSW
Pressure: 29.9"   Gusts: NA
Location:  42.96°N, 83.83°W
Report Text: KFNT 310953Z 21005KT 9SM -RA BKN041 OVC048 07/03 A2990 RMK AO2 RAB51 SLP130 P0000 T00720033
Loading
Personal Weather Stations






























Interactive Weather Map New forecast layout! Learn more

10-Day Weather Forecast

Advertisements
Track Severe Weather on mobile